Capt. Vic — WCY4427 — position and weather

sailwx.info

Track history (hours):
 
Tides and Currents Weather Stations Pressure Air Temp Water Temp Dewpoint Dewpoint Depression Visibility Wind Speed Wind Dir Waves Ship Positions

Capt. Vic

Owner: Love City Car Ferries, Inc., St. Thomas, VI. More information available from US FCC via Universal Licensing System and Coast Guard Vessel Documentation Center.

Last reported at 2018-Jun-21 23:37 UTC. Time now 2018-Jul-23 00:22 UTC.
Position N 18°20' W 064°48'.
Warning: this ship's position is 31 days out of date.

Length 36 m; draft 2.5 m.

Type: Ship. MMSI: 338457000.

Date/timePositionNaut miles runAvg speedWind from/ knotsBaromVisibWave heightAir tempDewpointWater temp
2018-Jun-21 23:37N 18°20' W 064°48'1 6.0
2018-Jun-21 23:30N 18°19' W 064°48'3 5.0
2018-Jun-21 23:00N 18°20' W 064°51'1 2.8
2018-Jun-21 22:30N 18°20' W 064°49'2 3.4
2018-Jun-21 22:00N 18°20' W 064°48'1 1.2
2018-Jun-21 21:30N 18°19' W 064°48'1 0.2
2018-Jun-21 18:23N 18°20' W 064°48'1 0.0
2018-Jun-20 21:40N 18°19' W 064°48'1 7.7
2018-Jun-20 21:30N 18°20' W 064°49'2 2.9
2018-Jun-20 20:58N 18°20' W 064°51'3 5.8
2018-Jun-20 20:27N 18°20' W 064°48'0 0.3
2018-Jun-20 20:00N 18°20' W 064°48'2 4.1
2018-Jun-20 19:30N 18°21' W 064°50'2 3.1
2018-Jun-20 19:00N 18°20' W 064°51'1 1.6
2018-Jun-20 18:31N 18°20' W 064°50'2 4.6
2018-Jun-20 18:00N 18°20' W 064°48'0 0.5
2018-Jun-20 17:30N 18°19' W 064°48'3 2.6
2018-Jun-20 16:28N 18°20' W 064°51'3 6.4
2018-Jun-20 16:00N 18°20' W 064°48'1 1.3
2018-Jun-20 15:30N 18°20' W 064°48'2 4.3
2018-Jun-20 14:56N 18°20' W 064°51'2 4.1
2018-Jun-20 14:30N 18°20' W 064°49'1 2.7
2018-Jun-20 14:00N 18°20' W 064°48'1 2.6
2018-Jun-20 13:31N 18°20' W 064°49'2 3.1
2018-Jun-20 12:55N 18°20' W 064°51'0 0.4
2018-Jun-20 12:28N 18°20' W 064°51'3 6.3
2018-Jun-20 12:00N 18°20' W 064°48'1 1.1
2018-Jun-20 11:30N 18°20' W 064°48'3 3.4
2018-Jun-20 10:45N 18°20' W 064°51'2 7.4
2018-Jun-20 10:30N 18°20' W 064°49'1 0.0
2018-Jun-18 23:27N 18°20' W 064°48'3 6.3
2018-Jun-18 22:59N 18°20' W 064°51'0 0.0
2018-Jun-18 10:45N 18°20' W 064°51'1 5.9
2018-Jun-18 10:30N 18°20' W 064°49'2 0.2
2018-Jun-17 23:39N 18°20' W 064°48'0 2.3
2018-Jun-17 23:29N 18°19' W 064°48'  
Track history (hours):
 
Tides and Currents Weather Stations Pressure Air Temp Water Temp Dewpoint Dewpoint Depression Visibility Wind Speed Wind Dir Waves Ship Positions

Capt. Vic

Owner: Love City Car Ferries, Inc., St. Thomas, VI. More information available from US FCC via Universal Licensing System and Coast Guard Vessel Documentation Center.

Last reported at 2018-Jun-21 23:37 UTC. Time now 2018-Jul-23 00:22 UTC.
Position N 18°20' W 064°48'.
Warning: this ship's position is 31 days out of date.

Length 36 m; draft 2.5 m.

Type: Ship. MMSI: 338457000.

Date/timePositionNaut miles runAvg speedWind from/ knotsBaromVisibWave heightAir tempDewpointWater temp
2018-Jun-21 23:37N 18°20' W 064°48'1 6.0
2018-Jun-21 23:30N 18°19' W 064°48'3 5.0
2018-Jun-21 23:00N 18°20' W 064°51'1 2.8
2018-Jun-21 22:30N 18°20' W 064°49'2 3.4
2018-Jun-21 22:00N 18°20' W 064°48'1 1.2
2018-Jun-21 21:30N 18°19' W 064°48'1 0.2
2018-Jun-21 18:23N 18°20' W 064°48'1 0.0
2018-Jun-20 21:40N 18°19' W 064°48'1 7.7
2018-Jun-20 21:30N 18°20' W 064°49'2 2.9
2018-Jun-20 20:58N 18°20' W 064°51'3 5.8
2018-Jun-20 20:27N 18°20' W 064°48'0 0.3
2018-Jun-20 20:00N 18°20' W 064°48'2 4.1
2018-Jun-20 19:30N 18°21' W 064°50'2 3.1
2018-Jun-20 19:00N 18°20' W 064°51'1 1.6
2018-Jun-20 18:31N 18°20' W 064°50'2 4.6
2018-Jun-20 18:00N 18°20' W 064°48'0 0.5
2018-Jun-20 17:30N 18°19' W 064°48'3 2.6
2018-Jun-20 16:28N 18°20' W 064°51'3 6.4
2018-Jun-20 16:00N 18°20' W 064°48'1 1.3
2018-Jun-20 15:30N 18°20' W 064°48'2 4.3
2018-Jun-20 14:56N 18°20' W 064°51'2 4.1
2018-Jun-20 14:30N 18°20' W 064°49'1 2.7
2018-Jun-20 14:00N 18°20' W 064°48'1 2.6
2018-Jun-20 13:31N 18°20' W 064°49'2 3.1
2018-Jun-20 12:55N 18°20' W 064°51'0 0.4
2018-Jun-20 12:28N 18°20' W 064°51'3 6.3
2018-Jun-20 12:00N 18°20' W 064°48'1 1.1
2018-Jun-20 11:30N 18°20' W 064°48'3 3.4
2018-Jun-20 10:45N 18°20' W 064°51'2 7.4
2018-Jun-20 10:30N 18°20' W 064°49'1 0.0
2018-Jun-18 23:27N 18°20' W 064°48'3 6.3
2018-Jun-18 22:59N 18°20' W 064°51'0 0.0
2018-Jun-18 10:45N 18°20' W 064°51'1 5.9
2018-Jun-18 10:30N 18°20' W 064°49'2 0.2
2018-Jun-17 23:39N 18°20' W 064°48'0 2.3
2018-Jun-17 23:29N 18°19' W 064°48'  

Dump ship's entire track history